Aviation Digital Data Service (ADDS)

Output produced by METARs form (2156 UTC 25 August 2016)
found at http://aviationweather.gov/adds/metars/
 
KPHX 252059Z 2521/2618 29010KT P6SM FEW150 
     FM260700 11006KT P6SM SCT120 BKN250